createdAt,value
2022-10-28T00:01:35.440Z,102265.31
2022-10-28T00:04:07.801Z,102265.06
2022-10-28T00:06:38.141Z,102265.50
2022-10-28T00:09:09.787Z,102266.97
2022-10-28T00:11:41.157Z,102270.47
2022-10-28T00:14:12.247Z,102263.63
2022-10-28T00:16:41.434Z,102265.88
2022-10-28T00:19:13.214Z,102267.22
2022-10-28T00:21:44.369Z,102268.81
2022-10-28T00:24:14.795Z,102265.91
2022-10-28T00:26:44.301Z,102263.53
2022-10-28T00:29:17.624Z,102250.63
2022-10-28T00:31:47.331Z,102255.56
2022-10-28T00:34:18.164Z,102251.13
2022-10-28T00:36:47.463Z,102254.28
2022-10-28T00:39:23.123Z,102252.00
2022-10-28T00:41:54.258Z,102257.78
2022-10-28T00:44:40.718Z,102265.53
2022-10-28T00:47:18.126Z,102259.97
2022-10-28T00:49:49.005Z,102281.16
2022-10-28T00:52:22.929Z,102273.91
2022-10-28T00:54:57.082Z,102274.38
2022-10-28T00:57:31.638Z,102272.75
2022-10-28T01:00:01.216Z,102269.00
2022-10-28T01:02:35.557Z,102263.44
2022-10-28T01:05:05.083Z,102262.38
2022-10-28T01:07:33.362Z,102259.06
2022-10-28T01:10:03.792Z,102258.19
2022-10-28T01:13:00.095Z,102251.16
2022-10-28T01:15:45.777Z,102252.59
2022-10-28T01:18:26.340Z,102254.63
2022-10-28T01:21:38.648Z,102251.91
2022-10-28T01:24:18.686Z,102247.22
2022-10-28T01:27:09.462Z,102243.03
2022-10-28T01:30:18.354Z,102238.22
2022-10-28T01:33:17.827Z,102240.91
2022-10-28T01:36:17.853Z,102246.38
2022-10-28T01:38:54.754Z,102243.13
2022-10-28T01:41:37.420Z,102240.22
2022-10-28T01:44:38.423Z,102233.38
2022-10-28T01:47:13.008Z,102234.78
2022-10-28T01:49:58.145Z,102238.56
2022-10-28T01:52:30.677Z,102227.28
2022-10-28T01:55:06.999Z,102223.66
2022-10-28T01:57:38.370Z,102230.63
2022-10-28T02:00:07.158Z,102229.47
2022-10-28T02:02:43.251Z,102228.06
2022-10-28T02:05:41.804Z,102234.72
2022-10-28T02:08:19.060Z,102229.78
2022-10-28T02:11:03.717Z,102229.19
2022-10-28T02:13:59.164Z,102218.88
2022-10-28T02:16:38.418Z,102222.19
2022-10-28T02:19:24.646Z,102221.78
2022-10-28T02:22:04.718Z,102219.53
2022-10-28T02:25:11.024Z,102220.38
2022-10-28T02:27:44.987Z,102226.59
2022-10-28T02:30:20.069Z,102224.72
2022-10-28T02:32:54.831Z,102218.53
2022-10-28T02:36:04.858Z,102209.78
2022-10-28T02:38:40.743Z,102206.28
2022-10-28T02:41:32.506Z,102206.47
2022-10-28T02:44:07.932Z,102211.00
2022-10-28T02:46:38.823Z,102214.75
2022-10-28T02:49:13.697Z,102210.38
2022-10-28T02:51:47.250Z,102218.22
2022-10-28T02:54:16.752Z,102211.75
2022-10-28T02:57:07.252Z,102214.03
2022-10-28T02:59:35.202Z,102214.66
2022-10-28T03:02:11.302Z,102212.16
2022-10-28T03:04:48.515Z,102202.84
2022-10-28T03:07:16.222Z,102206.81
2022-10-28T03:09:46.010Z,102203.31
2022-10-28T03:12:22.270Z,102200.44
2022-10-28T03:14:49.651Z,102200.06
2022-10-28T03:17:17.634Z,102199.44
2022-10-28T03:19:47.910Z,102201.94
2022-10-28T03:22:15.524Z,102196.34
2022-10-28T03:24:42.980Z,102197.81
2022-10-28T03:27:10.505Z,102205.63
2022-10-28T03:29:40.877Z,102197.78
2022-10-28T03:32:11.975Z,102199.00
2022-10-28T03:34:39.807Z,102205.63
2022-10-28T03:37:08.245Z,102207.94
2022-10-28T03:39:36.583Z,102219.75
2022-10-28T03:42:04.105Z,102225.34
2022-10-28T03:44:31.872Z,102221.75
2022-10-28T03:46:59.605Z,102220.78
2022-10-28T03:49:27.061Z,102216.59
2022-10-28T03:51:54.678Z,102214.63
2022-10-28T03:54:22.081Z,102217.72
2022-10-28T03:56:52.714Z,102216.50
2022-10-28T03:59:23.563Z,102209.00
2022-10-28T04:01:53.240Z,102210.91
2022-10-28T04:04:21.242Z,102209.78
2022-10-28T04:06:48.796Z,102216.16
2022-10-28T04:09:16.852Z,102221.34
2022-10-28T04:11:44.816Z,102219.16
2022-10-28T04:14:12.506Z,102216.47
2022-10-28T04:16:40.399Z,102211.44
2022-10-28T04:19:08.131Z,102213.22
2022-10-28T04:21:35.829Z,102220.28
2022-10-28T04:24:04.673Z,102216.97
2022-10-28T04:26:34.737Z,102209.47
2022-10-28T04:29:02.256Z,102214.66
2022-10-28T04:31:32.171Z,102213.19
2022-10-28T04:33:59.661Z,102205.84
2022-10-28T04:36:27.026Z,102210.59
2022-10-28T04:38:54.467Z,102202.94
2022-10-28T04:41:29.201Z,102210.13
2022-10-28T04:43:56.993Z,102197.56
2022-10-28T04:46:36.942Z,102199.25
2022-10-28T04:49:06.376Z,102194.25
2022-10-28T04:51:38.035Z,102190.16
2022-10-28T04:54:05.761Z,102196.81
2022-10-28T04:56:41.215Z,102208.13
2022-10-28T04:59:14.305Z,102204.34
2022-10-28T05:01:50.208Z,102209.09
2022-10-28T05:04:19.353Z,102212.09
2022-10-28T05:06:46.911Z,102217.63
2022-10-28T05:09:18.541Z,102218.44
2022-10-28T05:11:47.604Z,102216.53
2022-10-28T05:14:15.152Z,102224.59
2022-10-28T05:16:42.727Z,102225.31
2022-10-28T05:19:11.375Z,102223.31
2022-10-28T05:21:39.140Z,102229.41
2022-10-28T05:24:07.065Z,102236.94
2022-10-28T05:26:34.624Z,102234.31
2022-10-28T05:29:02.085Z,102235.41
2022-10-28T05:31:29.719Z,102235.22
2022-10-28T05:34:01.283Z,102239.78
2022-10-28T05:36:31.236Z,102237.47
2022-10-28T05:39:00.623Z,102233.31
2022-10-28T05:41:28.095Z,102231.44
2022-10-28T05:43:55.828Z,102232.28
2022-10-28T05:46:24.578Z,102240.38
2022-10-28T05:48:51.878Z,102238.88
2022-10-28T05:51:19.343Z,102238.50
2022-10-28T05:53:46.852Z,102237.69
2022-10-28T05:56:20.694Z,102236.00
2022-10-28T05:58:57.469Z,102238.69
2022-10-28T06:01:38.162Z,102239.50
2022-10-28T06:04:12.735Z,102243.16
2022-10-28T06:06:43.332Z,102233.03
2022-10-28T06:09:11.627Z,102241.66
2022-10-28T06:11:49.407Z,102247.22
2022-10-28T06:14:17.763Z,102247.88
2022-10-28T06:16:58.121Z,102250.00
2022-10-28T06:19:34.609Z,102246.94
2022-10-28T06:22:02.069Z,102252.13
2022-10-28T06:24:29.433Z,102249.06
2022-10-28T06:26:57.377Z,102255.38
2022-10-28T06:29:24.960Z,102253.81
2022-10-28T06:31:54.485Z,102260.03
2022-10-28T06:34:22.001Z,102262.53
2022-10-28T06:36:50.373Z,102264.56
2022-10-28T06:39:17.783Z,102261.47
2022-10-28T06:41:48.439Z,102267.41
2022-10-28T06:44:15.845Z,102277.06
2022-10-28T06:46:44.635Z,102281.78
2022-10-28T06:49:12.090Z,102286.94
2022-10-28T06:51:39.427Z,102281.94
2022-10-28T06:54:07.089Z,102285.28
2022-10-28T06:56:34.365Z,102296.88
2022-10-28T06:59:02.036Z,102295.88
2022-10-28T07:01:29.620Z,102304.56
2022-10-28T07:03:57.172Z,102297.50
2022-10-28T07:06:27.324Z,102294.91
2022-10-28T07:08:54.693Z,102292.66
2022-10-28T07:11:22.198Z,102298.16
2022-10-28T07:13:49.562Z,102292.13
2022-10-28T07:16:16.893Z,102297.16
2022-10-28T07:18:44.328Z,102300.47
2022-10-28T07:21:17.981Z,102298.25
2022-10-28T07:23:47.062Z,102299.97
2022-10-28T07:26:14.360Z,102307.81
2022-10-28T07:28:44.239Z,102315.31
2022-10-28T07:31:15.998Z,102323.47
2022-10-28T07:33:43.962Z,102334.44
2022-10-28T07:36:12.022Z,102331.63
2022-10-28T07:38:39.279Z,102330.56
2022-10-28T07:41:09.306Z,102332.31
2022-10-28T07:43:44.945Z,102331.97
2022-10-28T07:46:12.404Z,102336.66
2022-10-28T07:48:47.276Z,102342.09
2022-10-28T07:51:15.867Z,102346.41
2022-10-28T07:53:43.711Z,102347.44
2022-10-28T07:56:14.251Z,102351.22
2022-10-28T07:58:43.510Z,102353.16
2022-10-28T08:01:12.799Z,102355.69
2022-10-28T08:03:41.068Z,102354.72
2022-10-28T08:06:12.719Z,102352.28
2022-10-28T08:08:40.726Z,102355.31
2022-10-28T08:11:19.400Z,102360.16
2022-10-28T08:13:47.968Z,102363.28
2022-10-28T08:16:16.145Z,102361.16
2022-10-28T08:18:43.711Z,102364.13
2022-10-28T08:21:13.110Z,102358.72
2022-10-28T08:23:41.997Z,102369.13
2022-10-28T08:26:10.270Z,102370.19
2022-10-28T08:28:37.733Z,102366.28
2022-10-28T08:31:12.761Z,102366.03
2022-10-28T08:33:44.632Z,102367.97
2022-10-28T08:36:14.443Z,102370.06
2022-10-28T08:38:45.724Z,102373.16
2022-10-28T08:41:36.366Z,102378.00
2022-10-28T08:44:33.948Z,102378.91
2022-10-28T08:47:22.169Z,102374.59
2022-10-28T08:49:55.735Z,102371.97
2022-10-28T08:52:35.576Z,102381.19
2022-10-28T08:55:13.902Z,102377.38
2022-10-28T08:57:53.461Z,102377.00
2022-10-28T09:00:25.186Z,102373.34
2022-10-28T09:03:22.721Z,102376.72
2022-10-28T09:05:56.865Z,102374.25
2022-10-28T09:08:26.585Z,102376.75
2022-10-28T09:11:13.992Z,102384.28
2022-10-28T09:14:10.016Z,102378.88
2022-10-28T09:16:47.603Z,102388.06
2022-10-28T09:19:32.781Z,102386.41
2022-10-28T09:22:29.526Z,102390.19
2022-10-28T09:25:00.282Z,102386.28
2022-10-28T09:27:42.860Z,102393.56
2022-10-28T09:30:34.122Z,102394.44
2022-10-28T09:33:26.564Z,102399.00
2022-10-28T09:36:02.202Z,102390.34
2022-10-28T09:38:41.205Z,102390.75
2022-10-28T09:41:35.093Z,102386.63
2022-10-28T09:44:02.468Z,102380.63
2022-10-28T09:46:36.237Z,102386.22
2022-10-28T09:49:25.687Z,102392.91
2022-10-28T09:51:53.195Z,102390.84
2022-10-28T09:54:34.457Z,102396.06
2022-10-28T09:57:03.476Z,102397.72
2022-10-28T09:59:31.737Z,102397.53
2022-10-28T10:01:59.576Z,102391.28
2022-10-28T10:04:31.624Z,102390.88
2022-10-28T10:07:03.803Z,102391.31
2022-10-28T10:09:32.955Z,102393.41
2022-10-28T10:12:08.892Z,102399.84
2022-10-28T10:14:51.251Z,102394.22
2022-10-28T10:17:41.915Z,102392.59
2022-10-28T10:20:22.074Z,102402.78
2022-10-28T10:23:01.553Z,102390.72
2022-10-28T10:25:36.509Z,102390.72
2022-10-28T10:28:20.291Z,102383.81
2022-10-28T10:31:05.631Z,102385.47
2022-10-28T10:33:36.362Z,102380.06
2022-10-28T10:36:28.524Z,102382.13
2022-10-28T10:38:57.416Z,102389.41
2022-10-28T10:41:35.609Z,102382.75
2022-10-28T10:44:26.991Z,102379.00
2022-10-28T10:47:04.971Z,102386.72
2022-10-28T10:49:35.667Z,102385.47
2022-10-28T10:52:09.233Z,102380.47
2022-10-28T10:54:44.365Z,102376.50
2022-10-28T10:57:36.255Z,102379.19
2022-10-28T11:03:08.485Z,102371.28
2022-10-28T11:05:38.464Z,102364.19
2022-10-28T11:08:07.851Z,102361.25
2022-10-28T11:10:35.640Z,102359.19
2022-10-28T11:13:32.660Z,102353.94
2022-10-28T11:16:15.161Z,102349.59
2022-10-28T11:18:45.042Z,102344.75
2022-10-28T11:25:10.175Z,102334.50
2022-10-28T11:27:57.629Z,102333.63
2022-10-28T11:30:56.220Z,102330.09
2022-10-28T11:33:40.385Z,102329.41
2022-10-28T11:36:18.157Z,102323.59
2022-10-28T11:38:58.547Z,102323.78
2022-10-28T11:45:51.937Z,102320.47
2022-10-28T11:48:41.112Z,102316.75
2022-10-28T11:51:10.697Z,102319.19
2022-10-28T11:54:04.061Z,102308.03
2022-10-28T11:57:15.913Z,102315.69
2022-10-28T12:04:33.600Z,102309.53
2022-10-28T12:07:10.860Z,102296.69
2022-10-28T12:09:59.365Z,102296.78
2022-10-28T12:12:48.663Z,102288.22
2022-10-28T12:15:56.840Z,102293.44
2022-10-28T12:18:41.705Z,102283.00
2022-10-28T12:21:18.158Z,102279.75
2022-10-28T12:23:48.837Z,102280.41
2022-10-28T12:26:19.888Z,102276.81
2022-10-28T12:28:56.185Z,102273.09
2022-10-28T12:31:31.844Z,102267.91
2022-10-28T12:34:05.010Z,102268.50
2022-10-28T12:36:45.489Z,102263.16
2022-10-28T12:39:21.553Z,102259.00
2022-10-28T12:42:17.633Z,102255.84
2022-10-28T12:44:53.914Z,102253.91
2022-10-28T12:47:43.345Z,102254.97
2022-10-28T12:50:38.936Z,102251.44
2022-10-28T12:53:25.468Z,102248.31
2022-10-28T12:56:00.442Z,102246.41
2022-10-28T12:58:57.993Z,102251.09
2022-10-28T13:01:31.553Z,102241.69
2022-10-28T13:04:11.482Z,102236.56
2022-10-28T13:07:13.489Z,102242.66
2022-10-28T13:09:53.096Z,102234.50
2022-10-28T13:12:58.210Z,102236.63
2022-10-28T13:15:31.837Z,102234.91
2022-10-28T13:18:33.847Z,102236.97
2022-10-28T13:21:22.706Z,102234.13
2022-10-28T13:24:13.351Z,102229.22
2022-10-28T13:26:45.963Z,102231.25
2022-10-28T13:29:38.576Z,102224.56
2022-10-28T13:32:07.610Z,102228.94
2022-10-28T13:34:39.759Z,102229.59
2022-10-28T13:37:22.156Z,102222.88
2022-10-28T13:39:50.547Z,102221.03
2022-10-28T13:42:19.754Z,102218.06
2022-10-28T13:45:01.832Z,102228.06
2022-10-28T13:47:32.269Z,102230.34
2022-10-28T13:50:29.893Z,102231.25
2022-10-28T13:53:23.924Z,102225.34
2022-10-28T13:56:11.965Z,102225.06
2022-10-28T13:58:52.240Z,102222.13
2022-10-28T14:02:08.038Z,102219.13
2022-10-28T14:04:54.066Z,102207.47
2022-10-28T14:07:34.483Z,102206.09
2022-10-28T14:10:21.198Z,102206.41
2022-10-28T14:12:57.919Z,102210.47
2022-10-28T14:15:53.189Z,102211.50
2022-10-28T14:21:12.022Z,102210.69
2022-10-28T14:24:34.235Z,102208.56
2022-10-28T14:27:11.944Z,102217.22
2022-10-28T14:29:53.949Z,102207.53
2022-10-28T14:32:32.700Z,102213.13
2022-10-28T14:35:14.973Z,102208.06
2022-10-28T14:38:25.238Z,102216.97
2022-10-28T14:41:21.508Z,102222.16
2022-10-28T14:44:32.355Z,102220.00
2022-10-28T14:47:20.531Z,102225.97
2022-10-28T14:50:03.660Z,102220.56
2022-10-28T14:52:37.139Z,102223.94
2022-10-28T14:55:20.266Z,102223.53
2022-10-28T14:58:20.608Z,102228.44
2022-10-28T15:01:02.999Z,102223.84
2022-10-28T15:03:31.198Z,102223.06
2022-10-28T15:06:48.612Z,102227.66
2022-10-28T15:09:22.494Z,102230.13
2022-10-28T15:12:00.579Z,102225.31
2022-10-28T15:14:56.010Z,102226.19
2022-10-28T15:17:46.381Z,102222.47
2022-10-28T15:30:56.206Z,102223.59
2022-10-28T15:34:07.128Z,102229.84
2022-10-28T15:36:51.798Z,102232.78
2022-10-28T15:39:19.287Z,102226.13
2022-10-28T15:41:55.072Z,102230.28
2022-10-28T15:44:30.994Z,102220.28
2022-10-28T15:47:22.271Z,102225.69
2022-10-28T15:50:04.271Z,102216.13
2022-10-28T15:52:38.307Z,102214.47
2022-10-28T15:55:54.500Z,102225.50
2022-10-28T15:58:37.129Z,102224.47
2022-10-28T16:01:10.109Z,102221.97
2022-10-28T16:03:47.940Z,102217.38
2022-10-28T16:06:25.744Z,102214.91
2022-10-28T16:09:07.056Z,102213.22
2022-10-28T16:11:46.455Z,102212.03
2022-10-28T16:14:34.151Z,102209.94
2022-10-28T16:17:16.016Z,102215.53
2022-10-28T16:19:52.791Z,102213.50
2022-10-28T16:22:23.647Z,102209.75
2022-10-28T16:25:23.424Z,102209.31
2022-10-28T16:27:51.065Z,102208.28
2022-10-28T16:30:19.047Z,102207.03
2022-10-28T16:32:53.795Z,102211.00
2022-10-28T16:35:26.366Z,102213.28
2022-10-28T16:37:55.720Z,102206.84
2022-10-28T16:40:50.442Z,102214.34
2022-10-28T16:43:20.306Z,102213.09
2022-10-28T16:45:49.556Z,102218.91
2022-10-28T16:48:17.964Z,102221.59
2022-10-28T16:50:54.666Z,102221.22
2022-10-28T16:53:22.751Z,102222.84
2022-10-28T16:55:50.249Z,102222.44
2022-10-28T16:58:21.913Z,102223.47
2022-10-28T17:01:00.184Z,102222.84
2022-10-28T17:03:28.212Z,102219.31
2022-10-28T17:05:59.208Z,102223.06
2022-10-28T17:08:49.378Z,102216.84
2022-10-28T17:11:15.265Z,102220.34
2022-10-28T17:13:42.691Z,102215.38
2022-10-28T17:16:23.591Z,102215.16
2022-10-28T17:18:51.471Z,102219.16
2022-10-28T17:21:18.973Z,102217.06
2022-10-28T17:23:48.095Z,102215.00
2022-10-28T17:26:15.803Z,102216.44
2022-10-28T17:28:52.787Z,102213.75
2022-10-28T17:31:23.984Z,102216.44
2022-10-28T17:33:55.705Z,102214.13
2022-10-28T17:36:24.158Z,102210.81
2022-10-28T17:38:51.702Z,102221.84
2022-10-28T17:41:19.570Z,102224.34
2022-10-28T17:43:48.051Z,102225.38
2022-10-28T17:46:15.536Z,102225.38
2022-10-28T17:48:43.382Z,102230.56
2022-10-28T17:51:11.105Z,102234.50
2022-10-28T17:53:38.745Z,102233.69
2022-10-28T17:56:07.422Z,102236.38
2022-10-28T17:58:35.218Z,102247.81
2022-10-28T18:01:05.597Z,102238.06
2022-10-28T18:03:40.961Z,102239.09
2022-10-28T18:06:12.595Z,102241.16
2022-10-28T18:08:43.077Z,102245.94
2022-10-28T18:11:13.404Z,102245.94
2022-10-28T18:13:45.289Z,102248.44
2022-10-28T18:16:15.330Z,102246.97
2022-10-28T18:18:43.348Z,102242.81
2022-10-28T18:21:11.914Z,102249.06
2022-10-28T18:23:39.651Z,102259.03
2022-10-28T18:26:10.909Z,102253.84
2022-10-28T18:28:39.478Z,102252.19
2022-10-28T18:31:19.127Z,102260.47
2022-10-28T18:33:50.461Z,102254.47
2022-10-28T18:36:20.820Z,102254.88
2022-10-28T18:38:49.628Z,102252.38
2022-10-28T18:41:20.021Z,102249.88
2022-10-28T18:43:48.592Z,102260.88
2022-10-28T18:46:16.042Z,102261.09
2022-10-28T18:48:43.243Z,102260.88
2022-10-28T18:51:12.519Z,102264.00
2022-10-28T18:53:48.930Z,102260.69
2022-10-28T18:56:22.928Z,102260.44
2022-10-28T18:58:52.611Z,102264.56
2022-10-28T19:01:25.415Z,102263.56
2022-10-28T19:03:59.506Z,102262.91
2022-10-28T19:06:34.087Z,102265.19
2022-10-28T19:09:04.120Z,102261.25
2022-10-28T19:11:33.395Z,102262.28
2022-10-28T19:14:03.152Z,102253.31
2022-10-28T19:16:35.132Z,102255.63
2022-10-28T19:19:05.282Z,102259.13
2022-10-28T19:21:40.940Z,102260.81
2022-10-28T19:24:08.781Z,102260.00
2022-10-28T19:26:36.274Z,102264.53
2022-10-28T19:29:04.989Z,102260.38
2022-10-28T19:31:36.822Z,102260.56
2022-10-28T19:34:04.181Z,102263.06
2022-10-28T19:36:31.867Z,102264.72
2022-10-28T19:38:59.355Z,102256.16
2022-10-28T19:41:30.779Z,102263.44
2022-10-28T19:44:01.040Z,102258.47
2022-10-28T19:46:31.150Z,102265.34
2022-10-28T19:49:00.745Z,102264.09
2022-10-28T19:51:30.808Z,102253.50
2022-10-28T19:54:01.800Z,102254.13
2022-10-28T19:56:35.875Z,102255.38
2022-10-28T19:59:06.195Z,102252.91
2022-10-28T20:01:36.298Z,102250.41
2022-10-28T20:04:05.013Z,102252.28
2022-10-28T20:06:34.965Z,102261.81
2022-10-28T20:09:06.279Z,102257.69
2022-10-28T20:11:36.137Z,102263.91
2022-10-28T20:14:08.794Z,102267.84
2022-10-28T20:16:43.269Z,102263.91
2022-10-28T20:19:11.404Z,102256.41
2022-10-28T20:21:39.296Z,102259.75
2022-10-28T20:24:10.280Z,102258.88
2022-10-28T20:26:39.645Z,102263.88
2022-10-28T20:29:10.304Z,102261.81
2022-10-28T20:31:39.247Z,102263.03
2022-10-28T20:34:07.829Z,102261.78
2022-10-28T20:36:47.312Z,102259.09
2022-10-28T20:39:21.531Z,102265.06
2022-10-28T20:41:53.710Z,102254.69
2022-10-28T20:44:21.847Z,102249.91
2022-10-28T20:46:55.657Z,102258.41
2022-10-28T20:49:23.728Z,102254.88
2022-10-28T20:51:51.252Z,102259.84
2022-10-28T20:54:28.358Z,102252.81
2022-10-28T20:57:23.518Z,102263.16
2022-10-28T20:59:55.063Z,102265.63
2022-10-28T21:02:24.399Z,102270.59
2022-10-28T21:04:52.678Z,102279.13
2022-10-28T21:07:27.540Z,102278.25
2022-10-28T21:09:55.420Z,102277.00
2022-10-28T21:12:23.493Z,102267.06
2022-10-28T21:14:50.774Z,102277.19
2022-10-28T21:17:18.381Z,102273.63
2022-10-28T21:19:45.894Z,102274.06
2022-10-28T21:22:14.668Z,102274.66
2022-10-28T21:24:45.718Z,102274.00
2022-10-28T21:27:13.080Z,102277.56
2022-10-28T21:29:40.762Z,102274.00
2022-10-28T21:32:08.411Z,102275.19
2022-10-28T21:34:35.893Z,102275.63
2022-10-28T21:37:03.368Z,102268.56
2022-10-28T21:39:31.150Z,102268.97
2022-10-28T21:41:58.589Z,102270.41
2022-10-28T21:44:26.194Z,102269.56
2022-10-28T21:46:57.006Z,102266.44
2022-10-28T21:49:24.473Z,102278.66
2022-10-28T21:51:54.195Z,102273.22
2022-10-28T21:54:21.663Z,102273.59
2022-10-28T21:56:50.282Z,102274.19
2022-10-28T21:59:20.320Z,102278.88
2022-10-28T22:01:47.677Z,102273.50
2022-10-28T22:04:15.285Z,102276.47
2022-10-28T22:06:42.854Z,102271.09
2022-10-28T22:09:10.400Z,102269.13
2022-10-28T22:11:40.689Z,102267.72
2022-10-28T22:14:08.193Z,102272.91
2022-10-28T22:16:36.734Z,102275.00
2022-10-28T22:19:07.063Z,102259.13
2022-10-28T22:21:45.309Z,102269.03
2022-10-28T22:24:12.717Z,102269.88
2022-10-28T22:26:40.216Z,102273.13
2022-10-28T22:29:08.095Z,102267.34
2022-10-28T22:31:43.402Z,102269.09
2022-10-28T22:34:12.330Z,102259.53
2022-10-28T22:36:40.869Z,102268.97
2022-10-28T22:39:14.829Z,102263.88
2022-10-28T22:41:45.575Z,102267.84
2022-10-28T22:44:13.173Z,102263.06
2022-10-28T22:46:41.480Z,102256.47
2022-10-28T22:49:10.963Z,102266.03
2022-10-28T22:51:38.959Z,102251.53
2022-10-28T22:54:08.803Z,102258.16
2022-10-28T22:56:36.697Z,102256.06
2022-10-28T22:59:07.365Z,102251.09
2022-10-28T23:01:39.271Z,102250.69
2022-10-28T23:04:10.473Z,102250.81
2022-10-28T23:06:38.977Z,102252.25
2022-10-28T23:09:06.586Z,102247.81
2022-10-28T23:11:35.475Z,102240.94
2022-10-28T23:14:02.920Z,102244.38
2022-10-28T23:16:30.362Z,102242.66
2022-10-28T23:19:01.456Z,102238.75
2022-10-28T23:21:29.678Z,102240.09
2022-10-28T23:24:01.353Z,102231.81
2022-10-28T23:26:30.012Z,102226.28
2022-10-28T23:29:00.870Z,102224.00
2022-10-28T23:31:29.241Z,102220.50
2022-10-28T23:33:56.899Z,102225.69
2022-10-28T23:36:42.182Z,102227.69
2022-10-28T23:39:10.365Z,102216.53
2022-10-28T23:41:37.983Z,102221.44
2022-10-28T23:44:06.201Z,102214.22
2022-10-28T23:46:37.624Z,102212.81
2022-10-28T23:49:20.855Z,102204.34
2022-10-28T23:51:48.827Z,102205.75
2022-10-28T23:54:16.458Z,102204.34
2022-10-28T23:56:44.149Z,102214.91
2022-10-28T23:59:12.267Z,102212.84
